createdAt,value
2024-04-13T00:00:48.903Z,11.64
2024-04-13T00:03:16.547Z,11.71
2024-04-13T00:05:44.185Z,11.47
2024-04-13T00:08:11.691Z,11.26
2024-04-13T00:10:39.253Z,11.06
2024-04-13T00:13:06.345Z,11.15
2024-04-13T00:15:33.438Z,11.06
2024-04-13T00:18:03.018Z,10.91
2024-04-13T00:20:30.502Z,11.07
2024-04-13T00:22:58.030Z,10.86
2024-04-13T00:25:25.255Z,10.84
2024-04-13T00:27:52.889Z,11.16
2024-04-13T00:30:20.480Z,11.44
2024-04-13T00:32:49.880Z,11.40
2024-04-13T00:35:17.421Z,11.39
2024-04-13T00:37:45.105Z,11.44
2024-04-13T00:40:13.432Z,11.28
2024-04-13T00:42:41.976Z,11.41
2024-04-13T00:45:10.050Z,11.26
2024-04-13T00:47:41.016Z,11.31
2024-04-13T00:50:13.586Z,11.53
2024-04-13T00:52:44.633Z,11.45
2024-04-13T00:55:13.086Z,11.39
2024-04-13T00:57:41.281Z,11.33
2024-04-13T01:00:14.392Z,11.50
2024-04-13T01:02:45.070Z,11.63
2024-04-13T01:05:16.341Z,11.36
2024-04-13T01:07:47.634Z,11.11
2024-04-13T01:10:18.590Z,11.00
2024-04-13T01:12:46.118Z,10.77
2024-04-13T01:15:17.131Z,10.95
2024-04-13T01:17:45.338Z,10.96
2024-04-13T01:20:14.120Z,10.72
2024-04-13T01:22:47.483Z,10.80
2024-04-13T01:25:16.856Z,10.88
2024-04-13T01:27:45.167Z,11.28
2024-04-13T01:30:15.811Z,11.22
2024-04-13T01:32:43.458Z,11.11
2024-04-13T01:35:15.003Z,11.37
2024-04-13T01:37:43.506Z,11.15
2024-04-13T01:40:11.720Z,11.10
2024-04-13T01:42:42.559Z,11.42
2024-04-13T01:45:13.005Z,11.42
2024-04-13T01:47:42.208Z,11.23
2024-04-13T01:50:09.579Z,11.28
2024-04-13T01:52:37.056Z,11.19
2024-04-13T01:55:05.948Z,11.25
2024-04-13T01:57:34.122Z,10.96
2024-04-13T02:00:04.781Z,11.10
2024-04-13T02:02:32.434Z,10.88
2024-04-13T02:04:59.716Z,11.10
2024-04-13T02:07:30.935Z,11.03
2024-04-13T02:10:01.724Z,10.97
2024-04-13T02:12:29.508Z,10.94
2024-04-13T02:14:56.662Z,10.79
2024-04-13T02:17:23.832Z,10.81
2024-04-13T02:19:51.977Z,10.69
2024-04-13T02:22:20.206Z,10.50
2024-04-13T02:24:52.329Z,10.50
2024-04-13T02:27:22.543Z,10.48
2024-04-13T02:29:51.345Z,10.72
2024-04-13T02:32:20.747Z,10.74
2024-04-13T02:34:49.057Z,10.73
2024-04-13T02:37:16.553Z,10.89
2024-04-13T02:39:44.177Z,10.86
2024-04-13T02:42:13.695Z,10.96
2024-04-13T02:44:43.310Z,11.10
2024-04-13T02:47:10.518Z,11.12
2024-04-13T02:49:37.961Z,11.11
2024-04-13T02:52:07.252Z,11.03
2024-04-13T02:54:35.955Z,10.99
2024-04-13T02:57:03.697Z,11.28
2024-04-13T02:59:30.914Z,11.32
2024-04-13T03:01:58.386Z,11.21
2024-04-13T03:04:27.819Z,11.29
2024-04-13T03:07:00.828Z,11.32
2024-04-13T03:09:29.074Z,11.39
2024-04-13T03:11:57.593Z,11.42
2024-04-13T03:14:25.043Z,11.44
2024-04-13T03:16:52.541Z,11.46
2024-04-13T03:19:20.325Z,11.47
2024-04-13T03:21:48.383Z,11.45
2024-04-13T03:24:15.771Z,11.50
2024-04-13T03:26:43.374Z,11.58
2024-04-13T03:29:10.482Z,11.49
2024-04-13T03:31:37.805Z,11.46
2024-04-13T03:34:06.242Z,11.65
2024-04-13T03:36:33.459Z,11.52
2024-04-13T03:39:01.012Z,11.51
2024-04-13T03:41:29.503Z,11.61
2024-04-13T03:43:57.353Z,11.57
2024-04-13T03:46:28.083Z,11.68
2024-04-13T03:48:55.781Z,11.60
2024-04-13T03:51:24.184Z,11.57
2024-04-13T03:53:51.180Z,11.70
2024-04-13T03:56:20.622Z,11.72
2024-04-13T03:58:48.661Z,11.71
2024-04-13T04:01:16.005Z,11.83
2024-04-13T04:03:46.272Z,11.84
2024-04-13T04:06:13.914Z,11.85
2024-04-13T04:08:45.140Z,12.05
2024-04-13T04:11:12.366Z,11.95
2024-04-13T04:13:41.935Z,11.99
2024-04-13T04:16:10.261Z,12.00
2024-04-13T04:18:37.479Z,12.11
2024-04-13T04:21:05.992Z,12.09
2024-04-13T04:23:33.297Z,12.13
2024-04-13T04:26:01.190Z,12.11
2024-04-13T04:28:30.623Z,12.16
2024-04-13T04:31:11.527Z,12.22
2024-04-13T04:33:40.734Z,12.20
2024-04-13T04:36:13.278Z,12.22
2024-04-13T04:38:44.967Z,12.34
2024-04-13T04:41:13.146Z,12.35
2024-04-13T04:43:40.617Z,12.35
2024-04-13T04:46:10.946Z,12.47
2024-04-13T04:48:38.670Z,12.46
2024-04-13T04:51:09.024Z,12.47
2024-04-13T04:53:36.506Z,12.46
2024-04-13T04:56:04.187Z,12.43
2024-04-13T04:58:34.000Z,12.54
2024-04-13T05:01:03.093Z,12.57
2024-04-13T05:03:31.610Z,12.45
2024-04-13T05:05:58.999Z,12.49
2024-04-13T05:08:29.096Z,12.61
2024-04-13T05:10:59.384Z,12.46
2024-04-13T05:13:27.177Z,12.76
2024-04-13T05:15:55.599Z,12.80
2024-04-13T05:18:25.323Z,12.72
2024-04-13T05:20:52.364Z,12.84
2024-04-13T05:23:19.562Z,12.74
2024-04-13T05:25:47.901Z,12.65
2024-04-13T05:28:15.295Z,12.83
2024-04-13T05:30:56.939Z,12.75
2024-04-13T05:33:25.203Z,12.73
2024-04-13T05:36:03.261Z,12.86
2024-04-13T05:38:32.998Z,12.81
2024-04-13T05:41:00.800Z,12.87
2024-04-13T05:43:29.597Z,12.95
2024-04-13T05:45:57.215Z,13.10
2024-04-13T05:48:24.905Z,13.17
2024-04-13T05:51:01.557Z,13.38
2024-04-13T05:53:29.037Z,13.39
2024-04-13T05:55:57.244Z,13.49
2024-04-13T05:58:24.831Z,13.52
2024-04-13T06:00:56.397Z,13.73
2024-04-13T06:03:25.148Z,13.81
2024-04-13T06:05:52.654Z,14.11
2024-04-13T06:08:20.201Z,14.23
2024-04-13T06:10:54.788Z,14.43
2024-04-13T06:13:21.836Z,14.54
2024-04-13T06:15:50.393Z,14.65
2024-04-13T06:18:18.887Z,14.74
2024-04-13T06:20:47.782Z,14.80
2024-04-13T06:23:16.747Z,15.07
2024-04-13T06:25:47.012Z,15.06
2024-04-13T06:28:16.438Z,15.10
2024-04-13T06:30:47.293Z,15.19
2024-04-13T06:33:18.088Z,15.27
2024-04-13T06:35:49.514Z,15.49
2024-04-13T06:38:22.234Z,15.63
2024-04-13T06:40:52.402Z,15.65
2024-04-13T06:43:20.371Z,15.85
2024-04-13T06:45:48.764Z,16.06
2024-04-13T06:48:17.075Z,16.18
2024-04-13T06:50:47.154Z,16.35
2024-04-13T06:53:14.597Z,16.57
2024-04-13T06:55:42.031Z,16.61
2024-04-13T06:58:11.843Z,16.81
2024-04-13T07:00:38.955Z,16.86
2024-04-13T07:03:08.591Z,17.14
2024-04-13T07:05:35.908Z,17.28
2024-04-13T07:08:03.499Z,17.38
2024-04-13T07:10:31.459Z,17.42
2024-04-13T07:12:58.476Z,17.45
2024-04-13T07:15:26.768Z,17.45
2024-04-13T07:17:54.294Z,17.37
2024-04-13T07:20:23.832Z,17.66
2024-04-13T07:22:55.319Z,17.63
2024-04-13T07:25:22.705Z,17.69
2024-04-13T07:27:50.438Z,17.90
2024-04-13T07:30:19.728Z,17.54
2024-04-13T07:32:48.159Z,17.52
2024-04-13T07:35:17.691Z,17.52
2024-04-13T07:37:46.415Z,17.55
2024-04-13T07:40:23.511Z,17.81
2024-04-13T07:42:52.933Z,17.77
2024-04-13T07:45:20.361Z,17.54
2024-04-13T07:47:47.937Z,17.41
2024-04-13T07:50:16.277Z,17.49
2024-04-13T07:52:43.669Z,17.75
2024-04-13T07:55:11.151Z,17.89
2024-04-13T07:57:38.764Z,18.13
2024-04-13T08:00:09.944Z,18.10
2024-04-13T08:02:37.847Z,18.28
2024-04-13T08:05:05.402Z,18.11
2024-04-13T08:07:33.613Z,18.34
2024-04-13T08:10:05.171Z,18.42
2024-04-13T08:12:34.884Z,18.65
2024-04-13T08:15:04.799Z,18.79
2024-04-13T08:17:34.206Z,18.61
2024-04-13T08:20:10.751Z,18.59
2024-04-13T08:22:38.427Z,18.46
2024-04-13T08:25:06.969Z,18.34
2024-04-13T08:27:35.211Z,18.14
2024-04-13T08:30:03.535Z,18.14
2024-04-13T08:32:32.855Z,18.11
2024-04-13T08:35:03.158Z,18.17
2024-04-13T08:37:31.777Z,18.02
2024-04-13T08:39:59.069Z,17.86
2024-04-13T08:42:35.875Z,17.76
2024-04-13T08:45:05.984Z,17.77
2024-04-13T08:47:34.574Z,17.88
2024-04-13T08:50:03.861Z,18.31
2024-04-13T08:52:35.296Z,18.59
2024-04-13T08:55:06.616Z,18.47
2024-04-13T08:57:37.566Z,18.65
2024-04-13T09:00:09.998Z,18.83
2024-04-13T09:02:40.476Z,19.19
2024-04-13T09:05:09.972Z,19.14
2024-04-13T09:07:38.511Z,18.95
2024-04-13T09:10:12.647Z,18.91
2024-04-13T09:12:40.098Z,18.89
2024-04-13T09:15:08.846Z,18.84
2024-04-13T09:17:37.094Z,18.98
2024-04-13T09:20:13.743Z,19.03
2024-04-13T09:22:42.169Z,19.38
2024-04-13T09:25:20.169Z,19.49
2024-04-13T09:28:04.697Z,19.73
2024-04-13T09:30:33.184Z,20.12
2024-04-13T09:33:11.906Z,20.36
2024-04-13T09:35:39.093Z,20.36
2024-04-13T09:38:07.571Z,20.21
2024-04-13T09:40:36.426Z,19.98
2024-04-13T09:43:07.999Z,20.06
2024-04-13T09:45:39.857Z,20.30
2024-04-13T09:48:07.854Z,20.74
2024-04-13T09:50:35.223Z,20.86
2024-04-13T09:53:02.888Z,21.01
2024-04-13T09:55:36.762Z,21.08
2024-04-13T09:58:06.109Z,20.98
2024-04-13T10:00:39.001Z,20.90
2024-04-13T10:03:10.454Z,21.31
2024-04-13T10:05:39.487Z,21.32
2024-04-13T10:08:08.675Z,21.87
2024-04-13T10:10:38.857Z,21.97
2024-04-13T10:13:07.904Z,22.01
2024-04-13T10:15:36.146Z,21.99
2024-04-13T10:18:06.708Z,21.91
2024-04-13T10:20:37.850Z,21.92
2024-04-13T10:23:11.667Z,21.90
2024-04-13T10:25:39.019Z,21.85
2024-04-13T10:28:11.507Z,21.91
2024-04-13T10:30:55.684Z,21.82
2024-04-13T10:33:27.212Z,22.38
2024-04-13T10:36:06.213Z,22.19
2024-04-13T10:38:35.134Z,22.45
2024-04-13T10:41:04.264Z,22.52
2024-04-13T10:43:33.194Z,22.54
2024-04-13T10:46:03.280Z,22.27
2024-04-13T10:48:34.060Z,22.44
2024-04-13T10:51:06.241Z,22.80
2024-04-13T10:53:33.324Z,22.94
2024-04-13T10:56:00.754Z,23.16
2024-04-13T10:58:30.685Z,23.17
2024-04-13T11:01:02.470Z,22.36
2024-04-13T11:03:31.350Z,22.34
2024-04-13T11:05:59.819Z,22.76
2024-04-13T11:08:28.791Z,22.49
2024-04-13T11:10:58.176Z,22.86
2024-04-13T11:13:25.933Z,22.88
2024-04-13T11:15:53.727Z,22.98
2024-04-13T11:18:23.389Z,23.65
2024-04-13T11:21:06.728Z,22.83
2024-04-13T11:23:37.063Z,22.66
2024-04-13T11:26:05.091Z,23.05
2024-04-13T11:28:35.650Z,23.63
2024-04-13T11:31:03.118Z,24.20
2024-04-13T11:33:33.782Z,24.53
2024-04-13T11:36:02.405Z,25.11
2024-04-13T11:38:36.600Z,25.23
2024-04-13T11:41:05.467Z,25.07
2024-04-13T11:43:32.617Z,25.29
2024-04-13T11:46:00.260Z,25.47
2024-04-13T11:48:31.834Z,24.35
2024-04-13T11:50:59.433Z,23.69
2024-04-13T11:53:28.172Z,23.43
2024-04-13T11:55:55.549Z,24.03
2024-04-13T11:58:25.563Z,24.67
2024-04-13T12:00:54.093Z,24.68
2024-04-13T12:03:24.437Z,24.55
2024-04-13T12:05:53.030Z,24.61
2024-04-13T12:08:21.635Z,24.70
2024-04-13T12:10:49.276Z,25.33
2024-04-13T12:13:16.337Z,25.90
2024-04-13T12:15:44.662Z,25.36
2024-04-13T12:18:13.273Z,25.38
2024-04-13T12:20:40.762Z,24.42
2024-04-13T12:23:10.320Z,24.21
2024-04-13T12:25:41.804Z,23.59
2024-04-13T12:28:09.238Z,23.48
2024-04-13T12:30:36.937Z,23.38
2024-04-13T12:33:04.350Z,23.25
2024-04-13T12:35:31.999Z,23.09
2024-04-13T12:38:01.767Z,23.18
2024-04-13T12:40:31.003Z,23.88
2024-04-13T12:42:58.622Z,24.11
2024-04-13T12:45:27.096Z,24.15
2024-04-13T12:47:57.569Z,23.39
2024-04-13T12:50:25.036Z,23.39
2024-04-13T12:52:52.716Z,24.37
2024-04-13T12:55:21.004Z,25.38
2024-04-13T12:57:50.726Z,25.25
2024-04-13T13:00:18.137Z,24.96
2024-04-13T13:02:46.464Z,25.53
2024-04-13T13:05:14.099Z,25.91
2024-04-13T13:07:41.271Z,26.32
2024-04-13T13:10:08.946Z,24.84
2024-04-13T13:12:36.049Z,23.86
2024-04-13T13:15:04.572Z,24.47
2024-04-13T13:17:36.342Z,24.75
2024-04-13T13:20:04.752Z,25.21
2024-04-13T13:22:32.253Z,25.17
2024-04-13T13:25:38.794Z,25.59
2024-04-13T13:28:08.002Z,25.33
2024-04-13T13:30:41.854Z,24.64
2024-04-13T13:33:13.805Z,24.03
2024-04-13T13:35:43.186Z,23.87
2024-04-13T13:38:11.543Z,24.72
2024-04-13T13:40:38.739Z,25.12
2024-04-13T13:43:12.705Z,24.60
2024-04-13T13:45:41.843Z,24.44
2024-04-13T13:48:09.548Z,24.33
2024-04-13T13:50:37.347Z,24.27
2024-04-13T13:53:05.750Z,24.49
2024-04-13T13:55:33.420Z,24.77
2024-04-13T13:58:02.274Z,24.82
2024-04-13T14:00:31.634Z,24.75
2024-04-13T14:03:00.242Z,23.78
2024-04-13T14:05:28.954Z,23.50
2024-04-13T14:07:56.085Z,22.98
2024-04-13T14:10:27.373Z,23.51
2024-04-13T14:12:57.726Z,23.69
2024-04-13T14:15:25.099Z,24.57
2024-04-13T14:17:53.333Z,25.43
2024-04-13T14:20:21.504Z,25.96
2024-04-13T14:22:48.951Z,25.05
2024-04-13T14:25:16.669Z,23.71
2024-04-13T14:27:43.904Z,22.98
2024-04-13T14:30:11.674Z,22.94
2024-04-13T14:32:39.932Z,23.53
2024-04-13T14:35:08.569Z,24.09
2024-04-13T14:37:36.850Z,24.41
2024-04-13T14:40:05.753Z,24.90
2024-04-13T14:42:34.319Z,25.23
2024-04-13T14:45:01.757Z,25.07
2024-04-13T14:47:29.259Z,23.78
2024-04-13T14:49:57.691Z,23.67
2024-04-13T14:52:26.170Z,23.40
2024-04-13T14:54:53.607Z,23.44
2024-04-13T14:57:21.396Z,23.84
2024-04-13T14:59:48.641Z,23.77
2024-04-13T15:02:16.412Z,23.78
2024-04-13T15:04:43.532Z,23.58
2024-04-13T15:07:12.055Z,23.53
2024-04-13T15:09:40.689Z,23.60
2024-04-13T15:12:08.353Z,23.62
2024-04-13T15:14:38.310Z,23.57
2024-04-13T15:17:06.707Z,23.80
2024-04-13T15:19:34.219Z,23.59
2024-04-13T15:22:03.366Z,23.87
2024-04-13T15:24:30.546Z,23.59
2024-04-13T15:27:00.054Z,23.00
2024-04-13T15:29:27.606Z,23.23
2024-04-13T15:31:55.953Z,22.87
2024-04-13T15:34:24.455Z,22.65
2024-04-13T15:36:52.058Z,22.68
2024-04-13T15:39:21.558Z,22.66
2024-04-13T15:41:49.873Z,22.43
2024-04-13T15:44:18.855Z,22.67
2024-04-13T15:46:45.794Z,22.74
2024-04-13T15:49:13.458Z,22.81
2024-04-13T15:51:41.678Z,22.78
2024-04-13T15:54:13.072Z,22.87
2024-04-13T15:56:43.416Z,22.90
2024-04-13T15:59:12.933Z,22.72
2024-04-13T16:01:44.400Z,22.80
2024-04-13T16:04:11.599Z,22.48
2024-04-13T16:06:38.872Z,22.38
2024-04-13T16:09:05.987Z,22.28
2024-04-13T16:11:34.444Z,22.04
2024-04-13T16:14:04.804Z,21.89
2024-04-13T16:16:31.830Z,21.75
2024-04-13T16:19:01.538Z,21.76
2024-04-13T16:21:28.739Z,21.70
2024-04-13T16:23:56.029Z,21.63
2024-04-13T16:26:23.147Z,21.32
2024-04-13T16:28:51.766Z,21.24
2024-04-13T16:31:20.040Z,21.08
2024-04-13T16:33:47.165Z,20.86
2024-04-13T16:36:15.976Z,20.88
2024-04-13T16:38:43.049Z,20.94
2024-04-13T16:41:11.578Z,20.94
2024-04-13T16:43:38.869Z,20.81
2024-04-13T16:46:05.839Z,20.63
2024-04-13T16:48:32.914Z,20.83
2024-04-13T16:51:02.564Z,20.48
2024-04-13T16:53:35.862Z,20.21
2024-04-13T16:56:04.597Z,20.02
2024-04-13T16:58:33.880Z,19.89
2024-04-13T17:01:02.776Z,19.70
2024-04-13T17:03:31.558Z,19.69
2024-04-13T17:05:58.794Z,19.69
2024-04-13T17:08:29.107Z,19.95
2024-04-13T17:10:58.472Z,20.20
2024-04-13T17:13:25.713Z,20.25
2024-04-13T17:15:53.322Z,19.98
2024-04-13T17:18:20.846Z,20.03
2024-04-13T17:20:54.539Z,19.81
2024-04-13T17:23:21.930Z,19.63
2024-04-13T17:25:49.256Z,19.64
2024-04-13T17:28:16.724Z,19.24
2024-04-13T17:30:47.667Z,19.11
2024-04-13T17:33:15.459Z,19.36
2024-04-13T17:35:47.341Z,19.51
2024-04-13T17:38:14.611Z,19.48
2024-04-13T17:40:41.585Z,19.14
2024-04-13T17:43:11.143Z,18.65
2024-04-13T17:45:38.710Z,18.67
2024-04-13T17:48:05.992Z,18.95
2024-04-13T17:50:35.623Z,18.85
2024-04-13T17:53:05.957Z,18.54
2024-04-13T17:55:33.062Z,18.40
2024-04-13T17:58:01.544Z,18.43
2024-04-13T18:00:29.149Z,18.63
2024-04-13T18:02:59.707Z,18.46
2024-04-13T18:05:28.163Z,18.58
2024-04-13T18:07:56.165Z,18.58
2024-04-13T18:10:23.420Z,18.52
2024-04-13T18:12:51.111Z,18.05
2024-04-13T18:15:18.301Z,18.03
2024-04-13T18:17:47.539Z,17.77
2024-04-13T18:20:15.864Z,18.03
2024-04-13T18:22:43.275Z,18.08
2024-04-13T18:25:10.634Z,17.96
2024-04-13T18:27:37.936Z,17.80
2024-04-13T18:30:07.346Z,17.92
2024-04-13T18:32:36.866Z,17.92
2024-04-13T18:35:06.715Z,17.75
2024-04-13T18:37:35.166Z,17.73
2024-04-13T18:40:02.800Z,17.69
2024-04-13T18:42:31.129Z,17.66
2024-04-13T18:44:59.554Z,17.50
2024-04-13T18:47:27.123Z,17.47
2024-04-13T18:49:56.071Z,17.48
2024-04-13T18:52:23.948Z,17.48
2024-04-13T18:54:52.393Z,17.49
2024-04-13T18:57:19.599Z,17.38
2024-04-13T18:59:47.885Z,17.09
2024-04-13T19:02:15.307Z,16.94
2024-04-13T19:04:45.298Z,16.93
2024-04-13T19:07:12.759Z,17.07
2024-04-13T19:09:42.201Z,17.05
2024-04-13T19:12:09.665Z,16.91
2024-04-13T19:14:41.150Z,17.26
2024-04-13T19:17:08.200Z,17.20
2024-04-13T19:19:37.043Z,17.11
2024-04-13T19:22:04.690Z,17.01
2024-04-13T19:24:31.722Z,17.08
2024-04-13T19:27:01.902Z,16.96
2024-04-13T19:29:29.566Z,16.73
2024-04-13T19:31:57.237Z,16.61
2024-04-13T19:34:24.447Z,16.53
2024-04-13T19:36:51.508Z,16.52
2024-04-13T19:39:19.197Z,16.59
2024-04-13T19:41:46.494Z,16.66
2024-04-13T19:44:17.970Z,16.61
2024-04-13T19:46:45.270Z,16.46
2024-04-13T19:49:14.627Z,16.35
2024-04-13T19:51:43.065Z,16.24
2024-04-13T19:54:11.426Z,16.18
2024-04-13T19:56:38.832Z,16.17
2024-04-13T19:59:05.937Z,16.15
2024-04-13T20:01:33.270Z,16.17
2024-04-13T20:04:05.658Z,15.94
2024-04-13T20:06:36.323Z,16.01
2024-04-13T20:09:05.097Z,15.96
2024-04-13T20:11:34.391Z,15.70
2024-04-13T20:14:01.811Z,15.78
2024-04-13T20:16:42.595Z,15.78
2024-04-13T20:19:11.631Z,15.66
2024-04-13T20:21:38.839Z,15.41
2024-04-13T20:24:06.156Z,15.47
2024-04-13T20:26:33.331Z,15.44
2024-04-13T20:29:00.829Z,15.38
2024-04-13T20:31:28.272Z,15.40
2024-04-13T20:33:55.832Z,15.56
2024-04-13T20:36:23.427Z,15.19
2024-04-13T20:38:50.823Z,15.36
2024-04-13T20:41:18.289Z,15.33
2024-04-13T20:43:45.759Z,15.45
2024-04-13T20:46:14.143Z,15.47
2024-04-13T20:48:42.821Z,15.41
2024-04-13T20:51:10.090Z,15.47
2024-04-13T20:53:37.670Z,15.55
2024-04-13T20:56:05.422Z,15.27
2024-04-13T20:58:32.661Z,15.08
2024-04-13T21:01:00.288Z,15.12
2024-04-13T21:03:27.656Z,15.09
2024-04-13T21:05:55.946Z,14.98
2024-04-13T21:08:23.463Z,15.30
2024-04-13T21:10:50.849Z,15.22
2024-04-13T21:13:18.321Z,15.27
2024-04-13T21:15:46.121Z,15.18
2024-04-13T21:18:13.311Z,15.10
2024-04-13T21:20:40.782Z,15.07
2024-04-13T21:23:08.271Z,15.06
2024-04-13T21:25:39.929Z,14.95
2024-04-13T21:28:09.320Z,15.06
2024-04-13T21:30:39.277Z,14.94
2024-04-13T21:33:06.931Z,14.93
2024-04-13T21:35:39.153Z,14.72
2024-04-13T21:38:06.244Z,14.78
2024-04-13T21:40:33.709Z,14.66
2024-04-13T21:43:01.107Z,14.60
2024-04-13T21:45:28.309Z,14.62
2024-04-13T21:47:57.727Z,14.78
2024-04-13T21:50:25.318Z,14.71
2024-04-13T21:52:53.635Z,14.84
2024-04-13T21:55:21.226Z,14.74
2024-04-13T21:57:48.585Z,14.69
2024-04-13T22:00:17.560Z,14.44
2024-04-13T22:02:45.400Z,14.29
2024-04-13T22:05:13.233Z,14.25
2024-04-13T22:07:41.662Z,14.18
2024-04-13T22:10:09.235Z,14.21
2024-04-13T22:12:36.505Z,14.18
2024-04-13T22:15:04.658Z,14.29
2024-04-13T22:17:31.921Z,14.42
2024-04-13T22:19:59.336Z,13.99
2024-04-13T22:22:26.850Z,13.98
2024-04-13T22:24:53.890Z,13.94
2024-04-13T22:27:23.335Z,13.87
2024-04-13T22:29:55.385Z,13.82
2024-04-13T22:32:22.845Z,14.03
2024-04-13T22:34:50.271Z,14.12
2024-04-13T22:37:20.138Z,14.08
2024-04-13T22:39:47.796Z,13.97
2024-04-13T22:42:15.419Z,13.88
2024-04-13T22:44:42.722Z,13.86
2024-04-13T22:47:10.256Z,13.77
2024-04-13T22:49:37.669Z,13.84
2024-04-13T22:52:05.339Z,13.45
2024-04-13T22:54:34.996Z,13.52
2024-04-13T22:57:03.661Z,13.57
2024-04-13T22:59:30.885Z,13.62
2024-04-13T23:01:58.690Z,13.70
2024-04-13T23:04:26.259Z,13.55
2024-04-13T23:06:55.814Z,13.56
2024-04-13T23:09:24.140Z,13.47
2024-04-13T23:11:55.671Z,13.46
2024-04-13T23:14:23.321Z,13.41
2024-04-13T23:16:54.819Z,13.47
2024-04-13T23:19:22.224Z,13.41
2024-04-13T23:21:50.717Z,13.40
2024-04-13T23:24:17.705Z,13.37
2024-04-13T23:26:45.604Z,13.33
2024-04-13T23:29:15.357Z,13.41
2024-04-13T23:31:45.632Z,13.32
2024-04-13T23:34:13.282Z,13.37
2024-04-13T23:36:42.015Z,13.40
2024-04-13T23:39:11.814Z,13.29
2024-04-13T23:41:41.239Z,13.27
2024-04-13T23:44:14.219Z,13.01
2024-04-13T23:46:42.949Z,12.93
2024-04-13T23:49:10.785Z,13.26
2024-04-13T23:51:39.325Z,13.39
2024-04-13T23:54:08.668Z,13.37
2024-04-13T23:56:39.009Z,13.27
2024-04-13T23:59:09.439Z,13.19
